»·PEaware :: N777KS KBUR-KLAS

N777KS :: KBUR-KLAS

FLIGHT INFORMATION

Flight Status: Arrived
Operator: Privately registered:
United States
More flights under this callsign
Pilot: Kevin S. (26378)
Aircraft: SOCATA TBM-900
(TBM9)
More flights by this aircraft type
Origin: KBUR Bob Hope-Burbank
United States
Destination: KLAS McCarran Intl
United States
More flights between these airports :: More routes between these airports
Route: +VNY3 DAG DAG CRESO4
File this flight plan on PilotEdge
Remarks:
Altitude:
(Current/Filed)
25,000ft
Speed:
(Current/Filed)
225kts
Departed: 29-Dec-19 05:08 PM
Arrived: 29-Dec-19 06:07 PM
Distance/Time
Traveled:
193nm/0:59
Distance/Time
To Go:
Arrived

Flight Plot

Page will automatically refresh every two minutes.

Flight plan parsing failed; only flown route is shown


Map Options




Map Legend


Flown Route
Filed Route
Departure Airport
Arrival Airport
Navaid (VOR, NDB)
Fix

Horizontal Profiles

Position Reports

Time Latitude Longitude Heading Altitude Ground
Speed
29-Dec-19 16:40 34.196413 -118.367566 359 733ft 0kts
29-Dec-19 16:41 34.196413 -118.367566 359 733ft 0kts
29-Dec-19 16:42 34.196413 -118.367566 359 733ft 0kts
29-Dec-19 16:43 34.196413 -118.367566 359 733ft 0kts
29-Dec-19 16:44 34.196413 -118.367566 359 733ft 0kts
29-Dec-19 16:45 34.196413 -118.367566 359 733ft 0kts
29-Dec-19 16:46 34.196413 -118.367566 359 733ft 0kts
29-Dec-19 16:47 34.196413 -118.367566 359 733ft 0kts
29-Dec-19 16:48 34.196413 -118.367566 359 733ft 0kts
29-Dec-19 16:49 34.196413 -118.367566 359 733ft 0kts
29-Dec-19 16:50 34.196413 -118.367566 359 733ft 0kts
29-Dec-19 16:51 34.196413 -118.367566 359 733ft 0kts
29-Dec-19 16:52 34.196413 -118.367566 359 733ft 0kts
29-Dec-19 16:53 34.196413 -118.367566 359 733ft 0kts
29-Dec-19 16:54 34.196413 -118.367566 359 733ft 0kts
29-Dec-19 16:55 34.196413 -118.367566 359 733ft 0kts
29-Dec-19 16:56 34.196413 -118.367566 359 733ft 0kts
29-Dec-19 16:57 34.196413 -118.367566 359 733ft 0kts
29-Dec-19 16:58 34.196413 -118.367566 359 733ft 0kts
29-Dec-19 16:59 34.196413 -118.367566 359 733ft 0kts
29-Dec-19 17:00 34.196413 -118.367566 359 733ft 0kts
29-Dec-19 17:01 34.200215 -118.358845 258 733ft 0kts
29-Dec-19 17:02 34.201806 -118.358908 36 733ft 15kts
29-Dec-19 17:03 34.204692 -118.359511 347 733ft 10kts
29-Dec-19 17:04 34.208925 -118.360640 348 733ft 18kts
29-Dec-19 17:05 34.209393 -118.360622 32 733ft 0kts
29-Dec-19 17:06 34.209329 -118.359637 171 733ft 12kts
29-Dec-19 17:07 34.188710 -118.356802 209 1618ft 135kts
29-Dec-19 17:08 34.154915 -118.398214 225 2841ft 192kts
29-Dec-19 17:09 34.119480 -118.440037 225 4893ft 167kts
29-Dec-19 17:10 34.131561 -118.470773 351 7180ft 159kts
29-Dec-19 17:11 34.175301 -118.471584 352 8950ft 167kts
29-Dec-19 17:12 34.226409 -118.473800 355 9896ft 194kts
29-Dec-19 17:13 34.280134 -118.458534 356 10903ft 211kts
29-Dec-19 17:14 34.341118 -118.460008 351 11933ft 225kts
29-Dec-19 17:15 34.404403 -118.461593 7 12917ft 236kts
29-Dec-19 17:16 34.439356 -118.387674 58 12977ft 280kts
29-Dec-19 17:17 34.479886 -118.306224 48 12946ft 284kts
29-Dec-19 17:18 34.528083 -118.229272 47 12944ft 286kts
29-Dec-19 17:19 34.576309 -118.152173 47 12943ft 285kts
29-Dec-19 17:20 34.624319 -118.075171 47 13122ft 278kts
29-Dec-19 17:21 34.639718 -117.988523 79 15028ft 245kts
29-Dec-19 17:22 34.648256 -117.910108 79 16940ft 224kts
29-Dec-19 17:23 34.656192 -117.837053 80 18890ft 207kts
29-Dec-19 17:24 34.663800 -117.767094 80 20501ft 208kts
29-Dec-19 17:25 34.677327 -117.699801 58 22107ft 198kts
29-Dec-19 17:26 34.697677 -117.632099 68 23833ft 231kts
29-Dec-19 17:27 34.718702 -117.550758 69 24955ft 287kts
29-Dec-19 17:28 34.744586 -117.449147 70 24951ft 333kts
29-Dec-19 17:29 34.772370 -117.339732 71 24939ft 345kts
29-Dec-19 17:30 34.801008 -117.226294 70 24932ft 348kts
29-Dec-19 17:31 34.829614 -117.112719 71 24952ft 349kts
29-Dec-19 17:32 34.858090 -116.999071 70 24954ft 351kts
29-Dec-19 17:33 34.886589 -116.884817 70 24955ft 351kts
29-Dec-19 17:34 34.914961 -116.770550 70 24957ft 347kts
29-Dec-19 17:35 34.942785 -116.658070 71 24957ft 345kts
29-Dec-19 17:36 34.975564 -116.548255 57 24964ft 342kts
29-Dec-19 17:37 35.021297 -116.445848 58 24960ft 342kts
29-Dec-19 17:38 35.065664 -116.345753 59 25174ft 338kts
29-Dec-19 17:39 35.111488 -116.242077 59 24845ft 351kts
29-Dec-19 17:40 35.160506 -116.130808 59 22741ft 379kts
29-Dec-19 17:41 35.209361 -116.019515 59 20583ft 362kts
29-Dec-19 17:42 35.256682 -115.911389 58 18503ft 354kts
29-Dec-19 17:43 35.302447 -115.806512 59 16483ft 333kts
29-Dec-19 17:44 35.359217 -115.722402 43 14610ft 311kts
29-Dec-19 17:45 35.416652 -115.645820 44 12201ft 294kts
29-Dec-19 17:46 35.470677 -115.573566 44 10016ft 276kts
29-Dec-19 17:47 35.522476 -115.504126 44 10019ft 271kts
29-Dec-19 17:48 35.573758 -115.435316 44 10006ft 270kts
29-Dec-19 17:49 35.624099 -115.367623 44 9213ft 261kts
29-Dec-19 17:50 35.672715 -115.302135 44 8321ft 263kts
29-Dec-19 17:51 35.723447 -115.233650 45 7017ft 261kts
29-Dec-19 17:52 35.770615 -115.169906 46 7015ft 241kts
29-Dec-19 17:53 35.829433 -115.133513 21 7017ft 234kts
29-Dec-19 17:54 35.890102 -115.102029 21 7017ft 234kts
29-Dec-19 17:55 35.950106 -115.070862 21 7017ft 234kts
29-Dec-19 17:56 36.011419 -115.044961 6 6032ft 236kts
29-Dec-19 17:57 36.062028 -115.059064 307 4966ft 156kts
29-Dec-19 17:58 36.074197 -115.098527 278 4999ft 138kts
29-Dec-19 17:59 36.076493 -115.145225 272 5001ft 141kts
29-Dec-19 18:00 36.094409 -115.191911 0 4997ft 180kts
29-Dec-19 18:01 36.134429 -115.161813 33 4738ft 197kts
29-Dec-19 18:02 36.177846 -115.117693 75 4093ft 174kts
29-Dec-19 18:03 36.153798 -115.121361 222 3556ft 146kts
29-Dec-19 18:04 36.121867 -115.143757 207 3188ft 122kts
29-Dec-19 18:05 36.097361 -115.157745 205 2144ft 83kts
29-Dec-19 18:06 36.089388 -115.163412 294 2095ft 0kts
29-Dec-19 18:07 36.089388 -115.163412 294 2095ft 0kts

Navigation Log

Ident Type
Flight plan parsing failed, navigation log unavailable